createdAt,value
2023-02-23T00:04:40.491Z,22.1
2023-02-23T00:09:40.647Z,22.1
2023-02-23T00:14:40.900Z,22.1
2023-02-23T00:19:44.180Z,22.2
2023-02-23T00:24:43.796Z,22.2
2023-02-23T00:29:43.686Z,22.1
2023-02-23T00:34:43.848Z,22.2
2023-02-23T00:39:44.150Z,22.1
2023-02-23T00:44:44.319Z,22.1
2023-02-23T00:49:44.674Z,22
2023-02-23T00:54:45.094Z,22
2023-02-23T00:59:45.271Z,22
2023-02-23T01:04:45.505Z,22
2023-02-23T01:09:45.514Z,22
2023-02-23T01:14:48.631Z,22.1
2023-02-23T01:19:51.162Z,22.1
2023-02-23T01:24:51.028Z,22
2023-02-23T01:29:51.226Z,22
2023-02-23T01:34:51.557Z,21.9
2023-02-23T01:39:51.696Z,21.9
2023-02-23T01:44:51.998Z,21.9
2023-02-23T01:49:54.908Z,22
2023-02-23T01:54:54.558Z,21.9
2023-02-23T01:59:54.607Z,21.9
2023-02-23T02:04:54.795Z,21.7
2023-02-23T02:09:54.996Z,22
2023-02-23T02:14:55.257Z,22
2023-02-23T02:19:55.551Z,22
2023-02-23T02:24:55.812Z,21.8
2023-02-23T02:29:55.903Z,21.9
2023-02-23T02:34:56.297Z,21.9
2023-02-23T02:39:56.682Z,21.5
2023-02-23T02:44:56.893Z,21.9
2023-02-23T02:49:57.273Z,21.8
2023-02-23T02:54:57.514Z,21.8
2023-02-23T02:59:58.668Z,21.9
2023-02-23T03:04:58.713Z,21.9
2023-02-23T03:10:00.869Z,21.8
2023-02-23T03:15:00.747Z,21.8
2023-02-23T03:20:00.852Z,21.8
2023-02-23T03:25:01.192Z,21.7
2023-02-23T03:30:01.489Z,21.9
2023-02-23T03:35:01.816Z,21.8
2023-02-23T03:40:03.917Z,21.7
2023-02-23T03:45:03.777Z,21.7
2023-02-23T03:50:03.956Z,21.7
2023-02-23T03:55:04.075Z,21.7
2023-02-23T04:00:04.313Z,21.8
2023-02-23T04:05:04.524Z,21.8
2023-02-23T04:10:04.704Z,21.6
2023-02-23T04:15:04.988Z,21.5
2023-02-23T04:20:05.222Z,21.6
2023-02-23T04:25:05.654Z,21.7
2023-02-23T04:30:05.874Z,21.7
2023-02-23T04:35:08.512Z,21.7
2023-02-23T04:40:08.182Z,21.6
2023-02-23T04:45:08.588Z,21.7
2023-02-23T04:50:11.467Z,21.6
2023-02-23T04:55:11.863Z,21.6
2023-02-23T05:00:11.768Z,21.6
2023-02-23T05:05:12.090Z,21.6
2023-02-23T05:10:12.214Z,21.6
2023-02-23T05:15:12.548Z,21.6
2023-02-23T05:20:12.976Z,21.6
2023-02-23T05:25:13.077Z,21.5
2023-02-23T05:30:13.055Z,21.6
2023-02-23T05:35:13.428Z,21.6
2023-02-23T05:40:13.652Z,21.6
2023-02-23T05:45:16.763Z,21.6
2023-02-23T05:50:16.628Z,21.6
2023-02-23T05:55:19.711Z,21.7
2023-02-23T06:00:19.557Z,21.5
2023-02-23T06:05:19.807Z,21.7
2023-02-23T06:10:20.408Z,21.9
2023-02-23T06:15:20.835Z,21.9
2023-02-23T06:20:21.280Z,21.9
2023-02-23T06:25:21.340Z,21.9
2023-02-23T06:30:21.337Z,22
2023-02-23T06:35:21.720Z,22.1
2023-02-23T06:40:21.952Z,22.1
2023-02-23T06:45:22.339Z,22.3
2023-02-23T06:50:22.563Z,22.3
2023-02-23T06:55:23.027Z,22.2
2023-02-23T07:00:23.533Z,22.2
2023-02-23T07:05:23.686Z,22.3
2023-02-23T07:10:24.048Z,22.5
2023-02-23T07:15:24.557Z,22.5
2023-02-23T07:20:24.494Z,22.5
2023-02-23T07:25:24.773Z,22.5
2023-02-23T07:30:25.101Z,22.5
2023-02-23T07:35:25.177Z,22.5
2023-02-23T07:40:25.306Z,22.5
2023-02-23T07:45:25.503Z,22.6
2023-02-23T07:50:25.716Z,22.6
2023-02-23T07:55:25.915Z,22.6
2023-02-23T08:00:26.285Z,22.6
2023-02-23T08:05:26.750Z,22.6
2023-02-23T08:10:27.108Z,22.6
2023-02-23T08:15:27.394Z,22.6
2023-02-23T08:20:27.387Z,22.7
2023-02-23T08:25:27.659Z,22.6
2023-02-23T08:30:28.174Z,22.7
2023-02-23T08:35:28.437Z,22.7
2023-02-23T08:40:28.738Z,22.6
2023-02-23T08:45:31.687Z,22.6
2023-02-23T08:50:31.505Z,22.5
2023-02-23T08:55:31.788Z,22.5
2023-02-23T09:00:31.806Z,22.6
2023-02-23T09:05:32.853Z,22.5
2023-02-23T09:10:33.025Z,22.5
2023-02-23T09:15:36.182Z,22.7
2023-02-23T09:20:36.429Z,22.6
2023-02-23T09:25:36.617Z,22.5
2023-02-23T09:30:36.729Z,22.5
2023-02-23T09:35:36.993Z,22.5
2023-02-23T09:40:37.388Z,22.5
2023-02-23T09:45:37.229Z,22.6
2023-02-23T09:50:37.347Z,22.6
2023-02-23T09:55:37.602Z,22.6
2023-02-23T10:00:37.976Z,22.6
2023-02-23T10:05:37.197Z,22.7
2023-02-23T10:10:37.909Z,22.7
2023-02-23T10:15:38.346Z,22.7
2023-02-23T10:20:38.484Z,22.7
2023-02-23T10:25:38.692Z,22.5
2023-02-23T10:30:38.829Z,22.7
2023-02-23T10:35:39.085Z,22.7
2023-02-23T10:40:39.549Z,22.7
2023-02-23T10:45:39.577Z,22.7
2023-02-23T10:50:40.007Z,22.7
2023-02-23T10:55:40.139Z,22.7
2023-02-23T11:00:40.558Z,22.7
2023-02-23T11:05:40.469Z,22.8
2023-02-23T11:10:40.653Z,22.9
2023-02-23T11:15:50.132Z,22.8
2023-02-23T11:20:41.073Z,22.9
2023-02-23T11:25:41.312Z,23
2023-02-23T11:30:41.595Z,22.8
2023-02-23T11:35:41.888Z,23.1
2023-02-23T11:40:42.088Z,23
2023-02-23T11:45:43.767Z,23.1
2023-02-23T11:50:42.528Z,23.2
2023-02-23T11:55:42.764Z,23.2
2023-02-23T12:00:45.655Z,23.3
2023-02-23T12:05:45.520Z,23.2
2023-02-23T12:10:45.878Z,23.3
2023-02-23T12:15:48.864Z,23.3
2023-02-23T12:20:51.380Z,23.3
2023-02-23T12:25:51.031Z,23.1
2023-02-23T12:30:51.321Z,23.3
2023-02-23T12:35:51.365Z,23.3
2023-02-23T12:40:52.022Z,23.3
2023-02-23T12:45:52.094Z,23.3
2023-02-23T12:50:52.423Z,23.3
2023-02-23T12:55:52.549Z,23.4
2023-02-23T13:00:53.107Z,23.4
2023-02-23T13:05:53.306Z,23.4
2023-02-23T13:10:56.199Z,23.4
2023-02-23T13:15:55.899Z,23.4
2023-02-23T13:20:56.263Z,23.4
2023-02-23T13:25:56.244Z,23.5
2023-02-23T13:30:56.411Z,23.5
2023-02-23T13:35:56.606Z,23.5
2023-02-23T13:40:58.810Z,23.5
2023-02-23T13:45:58.696Z,23.5
2023-02-23T13:50:59.118Z,23.4
2023-02-23T13:55:59.315Z,23.6
2023-02-23T14:00:59.859Z,23.4
2023-02-23T14:06:00.019Z,23.6
2023-02-23T14:11:00.513Z,23.6
2023-02-23T14:16:03.735Z,23.5
2023-02-23T14:21:03.435Z,23.6
2023-02-23T14:26:02.438Z,23.7
2023-02-23T14:31:03.074Z,23.6
2023-02-23T14:36:03.475Z,23.6
2023-02-23T14:41:03.749Z,23.6
2023-02-23T14:46:06.697Z,23.5
2023-02-23T14:51:16.065Z,23.5
2023-02-23T14:56:06.509Z,23.4
2023-02-23T15:01:06.508Z,23.7
2023-02-23T15:06:07.059Z,23.5
2023-02-23T15:11:07.521Z,23.7
2023-02-23T15:16:10.507Z,23.5
2023-02-23T15:21:10.363Z,23.6
2023-02-23T15:26:23.660Z,23.7
2023-02-23T15:31:11.145Z,23.7
2023-02-23T15:36:14.513Z,23.5
2023-02-23T15:41:12.385Z,23.6
2023-02-23T15:46:14.773Z,23.6
2023-02-23T15:51:13.463Z,23.5
2023-02-23T15:56:13.662Z,23.5
2023-02-23T16:01:13.797Z,23.7
2023-02-23T16:06:14.051Z,23.5
2023-02-23T16:11:14.136Z,23.6
2023-02-23T16:16:14.513Z,23.6
2023-02-23T16:21:14.947Z,23.6
2023-02-23T16:26:17.695Z,23.7
2023-02-23T16:31:20.427Z,23.7
2023-02-23T16:36:20.438Z,23.6
2023-02-23T16:41:20.401Z,23.6
2023-02-23T16:46:20.770Z,23.6
2023-02-23T16:51:20.584Z,23.6
2023-02-23T16:56:21.245Z,23.6
2023-02-23T17:01:21.475Z,23.6
2023-02-23T17:06:24.261Z,23.6
2023-02-23T17:11:23.907Z,23.6
2023-02-23T17:16:24.489Z,23.4
2023-02-23T17:21:24.352Z,23.5
2023-02-23T17:26:24.287Z,23.4
2023-02-23T17:31:26.943Z,23.6
2023-02-23T17:36:27.530Z,23.5
2023-02-23T17:41:26.867Z,23.5
2023-02-23T17:46:27.187Z,23.5
2023-02-23T17:51:27.311Z,23.5
2023-02-23T17:56:27.038Z,23.5
2023-02-23T18:01:27.092Z,23.5
2023-02-23T18:06:27.296Z,23.5
2023-02-23T18:11:27.714Z,23.4
2023-02-23T18:16:30.298Z,23.5
2023-02-23T18:21:30.098Z,23.4
2023-02-23T18:26:30.255Z,23.5
2023-02-23T18:31:30.337Z,23.3
2023-02-23T18:36:30.430Z,23.4
2023-02-23T18:41:31.308Z,23.4
2023-02-23T18:46:31.539Z,23.3
2023-02-23T18:51:32.990Z,23.3
2023-02-23T18:56:32.803Z,23.3
2023-02-23T19:01:32.947Z,23.1
2023-02-23T19:06:33.086Z,23.1
2023-02-23T19:11:33.229Z,23
2023-02-23T19:16:35.843Z,23.1
2023-02-23T19:21:35.473Z,23
2023-02-23T19:26:35.793Z,23
2023-02-23T19:31:38.897Z,22.9
2023-02-23T19:36:38.420Z,22.9
2023-02-23T19:41:40.849Z,22.8
2023-02-23T19:46:40.565Z,22.8
2023-02-23T19:51:43.614Z,22.8
2023-02-23T19:56:43.353Z,22.7
2023-02-23T20:01:43.133Z,22.7
2023-02-23T20:06:43.392Z,22.7
2023-02-23T20:11:43.471Z,22.7
2023-02-23T20:16:43.730Z,22.5
2023-02-23T20:21:43.929Z,22.6
2023-02-23T20:26:45.056Z,22.6
2023-02-23T20:31:45.211Z,22.5
2023-02-23T20:36:45.406Z,22.4
2023-02-23T20:41:48.515Z,22.6
2023-02-23T20:46:48.300Z,22.5
2023-02-23T20:51:48.630Z,22.4
2023-02-23T20:56:48.858Z,22.3
2023-02-23T21:01:51.933Z,22.4
2023-02-23T21:06:52.419Z,22.5
2023-02-23T21:11:52.494Z,22.5
2023-02-23T21:16:55.421Z,22.4
2023-02-23T21:21:55.408Z,22.4
2023-02-23T21:26:55.578Z,22.4
2023-02-23T21:31:55.937Z,22.4
2023-02-23T21:36:56.108Z,22.2
2023-02-23T21:41:56.341Z,22.4
2023-02-23T21:46:56.616Z,22.4
2023-02-23T21:51:56.632Z,22.3
2023-02-23T21:56:56.679Z,22.3
2023-02-23T22:01:59.864Z,22.3
2023-02-23T22:06:59.390Z,22.3
2023-02-23T22:11:59.610Z,22.2
2023-02-23T22:16:59.383Z,22.3
2023-02-23T22:21:59.658Z,22.3
2023-02-23T22:27:02.511Z,22.3
2023-02-23T22:32:02.493Z,22.2
2023-02-23T22:37:02.448Z,22.2
2023-02-23T22:42:05.314Z,22.2
2023-02-23T22:47:04.970Z,22.2
2023-02-23T22:52:05.118Z,22.2
2023-02-23T22:57:05.246Z,22.2
2023-02-23T23:02:05.496Z,22.3
2023-02-23T23:07:05.580Z,22.2
2023-02-23T23:12:05.660Z,22.2
2023-02-23T23:17:05.774Z,22.1
2023-02-23T23:22:06.035Z,22.1
2023-02-23T23:27:06.198Z,22.2
2023-02-23T23:32:08.889Z,22.2
2023-02-23T23:37:08.334Z,22.1
2023-02-23T23:42:08.443Z,22.1
2023-02-23T23:47:08.540Z,22.2
2023-02-23T23:52:08.970Z,22.1
2023-02-23T23:57:09.301Z,22.1
